sensor_id;sensor_type;location;lat;lon;timestamp;P1;durP1;ratioP1;P2;durP2;ratioP2
10667;SDS011;5382;42.136;24.796;2022-12-29T00:02:08;13.25;;;8.38;;
10667;SDS011;5382;42.136;24.796;2022-12-29T00:04:35;17.02;;;8.48;;
10667;SDS011;5382;42.136;24.796;2022-12-29T00:07:02;11.70;;;8.43;;
10667;SDS011;5382;42.136;24.796;2022-12-29T00:09:30;9.40;;;7.40;;
10667;SDS011;5382;42.136;24.796;2022-12-29T00:14:44;11.95;;;6.95;;
10667;SDS011;5382;42.136;24.796;2022-12-29T00:17:29;13.90;;;8.38;;
10667;SDS011;5382;42.136;24.796;2022-12-29T00:19:56;13.65;;;6.93;;
10667;SDS011;5382;42.136;24.796;2022-12-29T00:22:40;16.85;;;8.75;;
10667;SDS011;5382;42.136;24.796;2022-12-29T00:25:23;12.80;;;7.47;;
10667;SDS011;5382;42.136;24.796;2022-12-29T00:28:09;19.92;;;9.30;;
10667;SDS011;5382;42.136;24.796;2022-12-29T00:30:54;14.75;;;7.60;;
10667;SDS011;5382;42.136;24.796;2022-12-29T00:33:42;11.45;;;6.97;;
10667;SDS011;5382;42.136;24.796;2022-12-29T00:36:27;14.68;;;8.43;;
10667;SDS011;5382;42.136;24.796;2022-12-29T00:38:58;13.73;;;7.28;;
10667;SDS011;5382;42.136;24.796;2022-12-29T00:41:44;12.82;;;7.35;;
10667;SDS011;5382;42.136;24.796;2022-12-29T00:44:30;10.52;;;6.28;;
10667;SDS011;5382;42.136;24.796;2022-12-29T00:46:57;12.02;;;7.38;;
10667;SDS011;5382;42.136;24.796;2022-12-29T00:49:27;12.05;;;6.20;;
10667;SDS011;5382;42.136;24.796;2022-12-29T00:51:56;11.88;;;7.47;;
10667;SDS011;5382;42.136;24.796;2022-12-29T00:54:24;10.10;;;6.90;;
10667;SDS011;5382;42.136;24.796;2022-12-29T00:56:51;11.90;;;7.25;;
10667;SDS011;5382;42.136;24.796;2022-12-29T00:59:18;11.70;;;6.72;;
10667;SDS011;5382;42.136;24.796;2022-12-29T01:01:47;11.05;;;7.90;;
10667;SDS011;5382;42.136;24.796;2022-12-29T01:04:14;11.88;;;7.35;;
10667;SDS011;5382;42.136;24.796;2022-12-29T01:06:41;9.20;;;6.78;;
10667;SDS011;5382;42.136;24.796;2022-12-29T01:09:08;10.40;;;6.60;;
10667;SDS011;5382;42.136;24.796;2022-12-29T01:11:53;14.07;;;7.25;;
10667;SDS011;5382;42.136;24.796;2022-12-29T01:14:20;10.70;;;7.28;;
10667;SDS011;5382;42.136;24.796;2022-12-29T01:16:48;9.85;;;6.78;;
10667;SDS011;5382;42.136;24.796;2022-12-29T01:19:16;12.15;;;6.70;;
10667;SDS011;5382;42.136;24.796;2022-12-29T01:21:43;13.30;;;7.72;;
10667;SDS011;5382;42.136;24.796;2022-12-29T01:24:10;10.82;;;7.28;;
10667;SDS011;5382;42.136;24.796;2022-12-29T01:26:37;13.88;;;7.93;;
10667;SDS011;5382;42.136;24.796;2022-12-29T01:29:03;11.05;;;7.22;;
10667;SDS011;5382;42.136;24.796;2022-12-29T01:31:31;9.57;;;7.18;;
10667;SDS011;5382;42.136;24.796;2022-12-29T01:33:59;10.90;;;6.70;;
10667;SDS011;5382;42.136;24.796;2022-12-29T01:36:26;10.45;;;7.40;;
10667;SDS011;5382;42.136;24.796;2022-12-29T01:38:53;15.77;;;7.50;;
10667;SDS011;5382;42.136;24.796;2022-12-29T01:41:20;12.35;;;7.63;;
10667;SDS011;5382;42.136;24.796;2022-12-29T01:43:47;13.15;;;7.45;;
10667;SDS011;5382;42.136;24.796;2022-12-29T01:46:20;10.63;;;7.65;;
10667;SDS011;5382;42.136;24.796;2022-12-29T01:48:51;11.73;;;7.93;;
10667;SDS011;5382;42.136;24.796;2022-12-29T01:51:23;10.80;;;7.05;;
10667;SDS011;5382;42.136;24.796;2022-12-29T01:53:51;10.30;;;8.07;;
10667;SDS011;5382;42.136;24.796;2022-12-29T01:56:21;10.63;;;7.60;;
10667;SDS011;5382;42.136;24.796;2022-12-29T01:58:50;12.85;;;8.13;;
10667;SDS011;5382;42.136;24.796;2022-12-29T02:01:23;11.40;;;8.23;;
10667;SDS011;5382;42.136;24.796;2022-12-29T02:03:50;11.40;;;7.90;;
10667;SDS011;5382;42.136;24.796;2022-12-29T02:06:18;11.35;;;7.90;;
10667;SDS011;5382;42.136;24.796;2022-12-29T02:08:50;15.35;;;8.02;;
10667;SDS011;5382;42.136;24.796;2022-12-29T02:11:20;14.82;;;8.60;;
10667;SDS011;5382;42.136;24.796;2022-12-29T02:13:48;12.43;;;8.10;;
10667;SDS011;5382;42.136;24.796;2022-12-29T02:16:18;12.00;;;7.78;;
10667;SDS011;5382;42.136;24.796;2022-12-29T02:19:00;12.95;;;8.20;;
10667;SDS011;5382;42.136;24.796;2022-12-29T02:21:48;12.85;;;8.20;;
10667;SDS011;5382;42.136;24.796;2022-12-29T02:27:46;11.85;;;7.28;;
10667;SDS011;5382;42.136;24.796;2022-12-29T02:33:21;11.15;;;8.02;;
10667;SDS011;5382;42.136;24.796;2022-12-29T02:35:59;11.02;;;8.20;;
10667;SDS011;5382;42.136;24.796;2022-12-29T02:38:39;13.50;;;7.43;;
10667;SDS011;5382;42.136;24.796;2022-12-29T02:41:16;16.42;;;8.38;;
10667;SDS011;5382;42.136;24.796;2022-12-29T02:43:48;9.77;;;7.65;;
10667;SDS011;5382;42.136;24.796;2022-12-29T02:46:23;9.90;;;7.00;;
10667;SDS011;5382;42.136;24.796;2022-12-29T02:48:55;13.45;;;6.93;;
10667;SDS011;5382;42.136;24.796;2022-12-29T02:51:36;10.02;;;6.25;;
10667;SDS011;5382;42.136;24.796;2022-12-29T02:54:09;13.70;;;6.43;;
10667;SDS011;5382;42.136;24.796;2022-12-29T02:56:53;10.63;;;6.75;;
10667;SDS011;5382;42.136;24.796;2022-12-29T02:59:20;10.80;;;6.85;;
10667;SDS011;5382;42.136;24.796;2022-12-29T03:01:55;14.48;;;7.35;;
10667;SDS011;5382;42.136;24.796;2022-12-29T03:04:51;15.98;;;7.57;;
10667;SDS011;5382;42.136;24.796;2022-12-29T03:07:31;12.73;;;7.72;;
10667;SDS011;5382;42.136;24.796;2022-12-29T03:10:05;15.27;;;9.52;;
10667;SDS011;5382;42.136;24.796;2022-12-29T03:12:42;12.50;;;8.20;;
10667;SDS011;5382;42.136;24.796;2022-12-29T03:15:33;13.82;;;8.50;;
10667;SDS011;5382;42.136;24.796;2022-12-29T03:18:24;14.70;;;8.88;;
10667;SDS011;5382;42.136;24.796;2022-12-29T03:20:57;15.73;;;9.02;;
10667;SDS011;5382;42.136;24.796;2022-12-29T03:23:30;12.15;;;9.40;;
10667;SDS011;5382;42.136;24.796;2022-12-29T03:25:59;10.90;;;8.20;;
10667;SDS011;5382;42.136;24.796;2022-12-29T03:28:35;13.73;;;8.48;;
10667;SDS011;5382;42.136;24.796;2022-12-29T03:31:04;13.95;;;8.00;;
10667;SDS011;5382;42.136;24.796;2022-12-29T03:33:35;12.15;;;7.90;;
10667;SDS011;5382;42.136;24.796;2022-12-29T03:36:04;12.02;;;8.43;;
10667;SDS011;5382;42.136;24.796;2022-12-29T03:38:37;15.20;;;8.38;;
10667;SDS011;5382;42.136;24.796;2022-12-29T03:41:11;12.68;;;9.32;;
10667;SDS011;5382;42.136;24.796;2022-12-29T03:43:42;16.48;;;8.75;;
10667;SDS011;5382;42.136;24.796;2022-12-29T03:46:08;18.35;;;9.88;;
10667;SDS011;5382;42.136;24.796;2022-12-29T03:48:37;16.73;;;9.77;;
10667;SDS011;5382;42.136;24.796;2022-12-29T03:51:04;19.98;;;9.05;;
10667;SDS011;5382;42.136;24.796;2022-12-29T03:53:31;13.68;;;9.90;;
10667;SDS011;5382;42.136;24.796;2022-12-29T03:55:57;17.33;;;10.48;;
10667;SDS011;5382;42.136;24.796;2022-12-29T03:58:24;20.10;;;11.90;;
10667;SDS011;5382;42.136;24.796;2022-12-29T04:00:51;14.95;;;10.68;;
10667;SDS011;5382;42.136;24.796;2022-12-29T04:03:18;18.17;;;11.50;;
10667;SDS011;5382;42.136;24.796;2022-12-29T04:05:46;18.20;;;12.00;;
10667;SDS011;5382;42.136;24.796;2022-12-29T04:08:12;15.60;;;10.68;;
10667;SDS011;5382;42.136;24.796;2022-12-29T04:10:39;17.75;;;10.73;;
10667;SDS011;5382;42.136;24.796;2022-12-29T04:13:06;18.80;;;11.25;;
10667;SDS011;5382;42.136;24.796;2022-12-29T04:15:33;23.00;;;13.18;;
10667;SDS011;5382;42.136;24.796;2022-12-29T04:18:00;21.70;;;12.60;;
10667;SDS011;5382;42.136;24.796;2022-12-29T04:20:27;17.45;;;10.80;;
10667;SDS011;5382;42.136;24.796;2022-12-29T04:23:12;19.55;;;12.50;;
10667;SDS011;5382;42.136;24.796;2022-12-29T04:25:39;18.33;;;11.52;;
10667;SDS011;5382;42.136;24.796;2022-12-29T04:28:06;24.27;;;12.45;;
10667;SDS011;5382;42.136;24.796;2022-12-29T04:30:33;23.45;;;13.32;;
10667;SDS011;5382;42.136;24.796;2022-12-29T04:32:59;19.17;;;11.50;;
10667;SDS011;5382;42.136;24.796;2022-12-29T04:35:26;20.02;;;12.65;;
10667;SDS011;5382;42.136;24.796;2022-12-29T04:37:53;18.80;;;12.35;;
10667;SDS011;5382;42.136;24.796;2022-12-29T04:40:21;19.95;;;11.77;;
10667;SDS011;5382;42.136;24.796;2022-12-29T04:42:49;23.08;;;13.07;;
10667;SDS011;5382;42.136;24.796;2022-12-29T04:45:16;19.80;;;12.45;;
10667;SDS011;5382;42.136;24.796;2022-12-29T04:47:42;22.27;;;13.45;;
10667;SDS011;5382;42.136;24.796;2022-12-29T04:50:10;22.73;;;13.00;;
10667;SDS011;5382;42.136;24.796;2022-12-29T04:52:37;20.55;;;13.00;;
10667;SDS011;5382;42.136;24.796;2022-12-29T04:55:04;22.50;;;13.65;;
10667;SDS011;5382;42.136;24.796;2022-12-29T04:57:33;25.27;;;13.90;;
10667;SDS011;5382;42.136;24.796;2022-12-29T05:00:00;22.00;;;13.30;;
10667;SDS011;5382;42.136;24.796;2022-12-29T05:02:27;23.23;;;12.88;;
10667;SDS011;5382;42.136;24.796;2022-12-29T05:04:54;23.98;;;12.85;;
10667;SDS011;5382;42.136;24.796;2022-12-29T05:07:21;21.35;;;13.10;;
10667;SDS011;5382;42.136;24.796;2022-12-29T05:09:48;23.73;;;14.27;;
10667;SDS011;5382;42.136;24.796;2022-12-29T05:12:14;29.10;;;14.57;;
10667;SDS011;5382;42.136;24.796;2022-12-29T05:14:42;28.33;;;15.05;;
10667;SDS011;5382;42.136;24.796;2022-12-29T05:17:09;23.02;;;14.52;;
10667;SDS011;5382;42.136;24.796;2022-12-29T05:19:36;22.55;;;14.23;;
10667;SDS011;5382;42.136;24.796;2022-12-29T05:22:04;24.73;;;13.00;;
10667;SDS011;5382;42.136;24.796;2022-12-29T05:24:31;26.63;;;13.18;;
10667;SDS011;5382;42.136;24.796;2022-12-29T05:26:58;28.27;;;13.23;;
10667;SDS011;5382;42.136;24.796;2022-12-29T05:29:24;21.73;;;12.10;;
10667;SDS011;5382;42.136;24.796;2022-12-29T05:31:52;21.30;;;12.32;;
10667;SDS011;5382;42.136;24.796;2022-12-29T05:34:19;23.60;;;13.27;;
10667;SDS011;5382;42.136;24.796;2022-12-29T05:36:46;21.50;;;12.93;;
10667;SDS011;5382;42.136;24.796;2022-12-29T05:39:13;24.83;;;14.15;;
10667;SDS011;5382;42.136;24.796;2022-12-29T05:41:39;25.40;;;13.85;;
10667;SDS011;5382;42.136;24.796;2022-12-29T05:44:06;27.80;;;13.80;;
10667;SDS011;5382;42.136;24.796;2022-12-29T05:46:33;27.75;;;14.25;;
10667;SDS011;5382;42.136;24.796;2022-12-29T05:49:01;28.48;;;13.02;;
10667;SDS011;5382;42.136;24.796;2022-12-29T05:51:28;21.88;;;12.77;;
10667;SDS011;5382;42.136;24.796;2022-12-29T05:53:55;20.67;;;12.55;;
10667;SDS011;5382;42.136;24.796;2022-12-29T05:56:22;20.48;;;11.50;;
10667;SDS011;5382;42.136;24.796;2022-12-29T05:58:49;25.08;;;12.23;;
10667;SDS011;5382;42.136;24.796;2022-12-29T06:01:16;26.00;;;11.70;;
10667;SDS011;5382;42.136;24.796;2022-12-29T06:03:43;18.27;;;12.23;;
10667;SDS011;5382;42.136;24.796;2022-12-29T06:06:11;24.20;;;12.65;;
10667;SDS011;5382;42.136;24.796;2022-12-29T06:08:38;24.45;;;14.00;;
10667;SDS011;5382;42.136;24.796;2022-12-29T06:11:04;34.15;;;14.73;;
10667;SDS011;5382;42.136;24.796;2022-12-29T06:13:31;30.38;;;15.35;;
10667;SDS011;5382;42.136;24.796;2022-12-29T06:15:58;31.42;;;14.80;;
10667;SDS011;5382;42.136;24.796;2022-12-29T06:18:25;27.25;;;14.98;;
10667;SDS011;5382;42.136;24.796;2022-12-29T06:20:52;22.98;;;14.40;;
10667;SDS011;5382;42.136;24.796;2022-12-29T06:23:20;22.33;;;12.70;;
10667;SDS011;5382;42.136;24.796;2022-12-29T06:25:47;24.38;;;13.30;;
10667;SDS011;5382;42.136;24.796;2022-12-29T06:28:14;21.67;;;12.73;;
10667;SDS011;5382;42.136;24.796;2022-12-29T06:30:43;24.17;;;12.98;;
10667;SDS011;5382;42.136;24.796;2022-12-29T06:33:10;29.30;;;12.65;;
10667;SDS011;5382;42.136;24.796;2022-12-29T06:35:37;26.88;;;14.25;;
10667;SDS011;5382;42.136;24.796;2022-12-29T06:38:04;21.00;;;13.35;;
10667;SDS011;5382;42.136;24.796;2022-12-29T06:40:32;28.55;;;14.13;;
10667;SDS011;5382;42.136;24.796;2022-12-29T06:42:59;25.58;;;14.10;;
10667;SDS011;5382;42.136;24.796;2022-12-29T06:45:26;28.30;;;15.63;;
10667;SDS011;5382;42.136;24.796;2022-12-29T06:47:53;38.90;;;18.58;;
10667;SDS011;5382;42.136;24.796;2022-12-29T06:50:19;25.45;;;14.02;;
10667;SDS011;5382;42.136;24.796;2022-12-29T06:52:46;29.58;;;15.15;;
10667;SDS011;5382;42.136;24.796;2022-12-29T06:55:13;31.75;;;15.45;;
10667;SDS011;5382;42.136;24.796;2022-12-29T06:57:41;23.80;;;14.18;;
10667;SDS011;5382;42.136;24.796;2022-12-29T07:00:08;30.75;;;14.20;;
10667;SDS011;5382;42.136;24.796;2022-12-29T07:02:36;24.08;;;14.35;;
10667;SDS011;5382;42.136;24.796;2022-12-29T07:05:02;27.70;;;15.45;;
10667;SDS011;5382;42.136;24.796;2022-12-29T07:07:30;31.85;;;15.05;;
10667;SDS011;5382;42.136;24.796;2022-12-29T07:09:56;25.90;;;14.57;;
10667;SDS011;5382;42.136;24.796;2022-12-29T07:12:23;40.75;;;16.92;;
10667;SDS011;5382;42.136;24.796;2022-12-29T07:14:51;33.65;;;16.73;;
10667;SDS011;5382;42.136;24.796;2022-12-29T07:17:18;33.80;;;16.70;;
10667;SDS011;5382;42.136;24.796;2022-12-29T07:19:45;33.38;;;15.48;;
10667;SDS011;5382;42.136;24.796;2022-12-29T07:22:12;28.60;;;15.55;;
10667;SDS011;5382;42.136;24.796;2022-12-29T07:24:38;24.98;;;14.30;;
10667;SDS011;5382;42.136;24.796;2022-12-29T07:27:05;28.25;;;15.43;;
10667;SDS011;5382;42.136;24.796;2022-12-29T07:29:32;33.70;;;19.27;;
10667;SDS011;5382;42.136;24.796;2022-12-29T07:32:00;27.27;;;16.23;;
10667;SDS011;5382;42.136;24.796;2022-12-29T07:34:27;32.90;;;17.55;;
10667;SDS011;5382;42.136;24.796;2022-12-29T07:36:54;36.30;;;21.08;;
10667;SDS011;5382;42.136;24.796;2022-12-29T07:39:21;34.28;;;19.05;;
10667;SDS011;5382;42.136;24.796;2022-12-29T07:41:47;34.20;;;19.70;;
10667;SDS011;5382;42.136;24.796;2022-12-29T07:44:14;34.10;;;19.35;;
10667;SDS011;5382;42.136;24.796;2022-12-29T07:46:41;34.05;;;17.75;;
10667;SDS011;5382;42.136;24.796;2022-12-29T07:49:09;31.00;;;17.67;;
10667;SDS011;5382;42.136;24.796;2022-12-29T07:51:36;30.15;;;18.20;;
10667;SDS011;5382;42.136;24.796;2022-12-29T07:54:03;29.15;;;18.23;;
10667;SDS011;5382;42.136;24.796;2022-12-29T07:56:30;25.15;;;13.93;;
10667;SDS011;5382;42.136;24.796;2022-12-29T07:58:56;21.10;;;14.40;;
10667;SDS011;5382;42.136;24.796;2022-12-29T08:01:23;30.38;;;14.52;;
10667;SDS011;5382;42.136;24.796;2022-12-29T08:03:50;24.77;;;14.02;;
10667;SDS011;5382;42.136;24.796;2022-12-29T08:06:18;26.85;;;14.90;;
10667;SDS011;5382;42.136;24.796;2022-12-29T08:08:45;22.55;;;14.45;;
10667;SDS011;5382;42.136;24.796;2022-12-29T08:11:12;23.85;;;15.38;;
10667;SDS011;5382;42.136;24.796;2022-12-29T08:13:39;26.67;;;14.75;;
10667;SDS011;5382;42.136;24.796;2022-12-29T08:16:06;29.15;;;15.38;;
10667;SDS011;5382;42.136;24.796;2022-12-29T08:18:32;24.05;;;14.45;;
10667;SDS011;5382;42.136;24.796;2022-12-29T08:21:01;27.25;;;15.50;;
10667;SDS011;5382;42.136;24.796;2022-12-29T08:23:30;26.52;;;14.93;;
10667;SDS011;5382;42.136;24.796;2022-12-29T08:25:57;26.70;;;15.70;;
10667;SDS011;5382;42.136;24.796;2022-12-29T08:28:25;23.60;;;15.43;;
10667;SDS011;5382;42.136;24.796;2022-12-29T08:30:52;24.23;;;14.70;;
10667;SDS011;5382;42.136;24.796;2022-12-29T08:33:19;28.17;;;15.45;;
10667;SDS011;5382;42.136;24.796;2022-12-29T08:35:46;26.08;;;14.82;;
10667;SDS011;5382;42.136;24.796;2022-12-29T08:38:12;21.35;;;14.57;;
10667;SDS011;5382;42.136;24.796;2022-12-29T08:40:41;20.70;;;13.43;;
10667;SDS011;5382;42.136;24.796;2022-12-29T08:43:07;24.65;;;15.30;;
10667;SDS011;5382;42.136;24.796;2022-12-29T08:45:34;22.05;;;14.75;;
10667;SDS011;5382;42.136;24.796;2022-12-29T08:48:01;26.05;;;14.95;;
10667;SDS011;5382;42.136;24.796;2022-12-29T08:50:28;27.95;;;15.80;;
10667;SDS011;5382;42.136;24.796;2022-12-29T08:52:55;25.35;;;14.20;;
10667;SDS011;5382;42.136;24.796;2022-12-29T08:55:21;29.25;;;14.95;;
10667;SDS011;5382;42.136;24.796;2022-12-29T08:57:50;22.65;;;14.88;;
10667;SDS011;5382;42.136;24.796;2022-12-29T09:00:17;24.00;;;13.75;;
10667;SDS011;5382;42.136;24.796;2022-12-29T09:02:45;23.27;;;15.32;;
10667;SDS011;5382;42.136;24.796;2022-12-29T09:05:12;26.27;;;13.98;;
10667;SDS011;5382;42.136;24.796;2022-12-29T09:07:39;22.00;;;14.77;;
10667;SDS011;5382;42.136;24.796;2022-12-29T09:10:06;24.42;;;15.30;;
10667;SDS011;5382;42.136;24.796;2022-12-29T09:12:33;25.27;;;14.75;;
10667;SDS011;5382;42.136;24.796;2022-12-29T09:15:02;25.08;;;15.70;;
10667;SDS011;5382;42.136;24.796;2022-12-29T09:17:29;25.40;;;15.60;;
10667;SDS011;5382;42.136;24.796;2022-12-29T09:20:11;21.33;;;14.10;;
10667;SDS011;5382;42.136;24.796;2022-12-29T09:22:39;24.50;;;15.55;;
10667;SDS011;5382;42.136;24.796;2022-12-29T09:25:06;24.35;;;16.88;;
10667;SDS011;5382;42.136;24.796;2022-12-29T09:27:34;20.92;;;14.95;;
10667;SDS011;5382;42.136;24.796;2022-12-29T09:30:02;22.02;;;15.95;;
10667;SDS011;5382;42.136;24.796;2022-12-29T09:32:31;23.58;;;15.85;;
10667;SDS011;5382;42.136;24.796;2022-12-29T09:34:57;27.10;;;18.92;;
10667;SDS011;5382;42.136;24.796;2022-12-29T09:37:24;27.65;;;16.17;;
10667;SDS011;5382;42.136;24.796;2022-12-29T09:39:51;20.08;;;13.15;;
10667;SDS011;5382;42.136;24.796;2022-12-29T09:42:19;20.25;;;15.02;;
10667;SDS011;5382;42.136;24.796;2022-12-29T09:44:56;19.45;;;15.10;;
10667;SDS011;5382;42.136;24.796;2022-12-29T09:47:33;26.00;;;17.65;;
10667;SDS011;5382;42.136;24.796;2022-12-29T09:50:02;20.20;;;15.75;;
10667;SDS011;5382;42.136;24.796;2022-12-29T09:52:34;19.75;;;15.48;;
10667;SDS011;5382;42.136;24.796;2022-12-29T09:55:04;18.38;;;11.35;;
10667;SDS011;5382;42.136;24.796;2022-12-29T09:57:38;22.10;;;15.30;;
10667;SDS011;5382;42.136;24.796;2022-12-29T10:00:13;20.77;;;14.82;;
10667;SDS011;5382;42.136;24.796;2022-12-29T10:02:43;21.08;;;14.45;;
10667;SDS011;5382;42.136;24.796;2022-12-29T10:05:13;22.55;;;15.75;;
10667;SDS011;5382;42.136;24.796;2022-12-29T10:08:03;19.05;;;11.93;;
10667;SDS011;5382;42.136;24.796;2022-12-29T10:10:43;25.10;;;15.13;;
10667;SDS011;5382;42.136;24.796;2022-12-29T10:13:23;20.30;;;15.75;;
10667;SDS011;5382;42.136;24.796;2022-12-29T10:16:01;21.10;;;14.48;;
10667;SDS011;5382;42.136;24.796;2022-12-29T10:21:28;26.45;;;15.60;;
10667;SDS011;5382;42.136;24.796;2022-12-29T10:24:07;21.50;;;15.57;;
10667;SDS011;5382;42.136;24.796;2022-12-29T10:26:38;21.80;;;14.27;;
10667;SDS011;5382;42.136;24.796;2022-12-29T10:29:14;25.63;;;16.83;;
10667;SDS011;5382;42.136;24.796;2022-12-29T10:31:47;22.40;;;17.50;;
10667;SDS011;5382;42.136;24.796;2022-12-29T10:34:21;26.52;;;18.90;;
10667;SDS011;5382;42.136;24.796;2022-12-29T10:36:53;26.02;;;18.95;;
10667;SDS011;5382;42.136;24.796;2022-12-29T10:39:26;26.35;;;18.58;;
10667;SDS011;5382;42.136;24.796;2022-12-29T10:42:01;20.85;;;14.65;;
10667;SDS011;5382;42.136;24.796;2022-12-29T10:44:36;25.60;;;15.70;;
10667;SDS011;5382;42.136;24.796;2022-12-29T10:47:05;24.10;;;16.02;;
10667;SDS011;5382;42.136;24.796;2022-12-29T10:49:38;31.52;;;18.45;;
10667;SDS011;5382;42.136;24.796;2022-12-29T10:52:07;26.42;;;19.52;;
10667;SDS011;5382;42.136;24.796;2022-12-29T10:54:37;27.38;;;17.92;;
10667;SDS011;5382;42.136;24.796;2022-12-29T10:57:09;23.77;;;18.08;;
10667;SDS011;5382;42.136;24.796;2022-12-29T10:59:42;24.95;;;17.65;;
10667;SDS011;5382;42.136;24.796;2022-12-29T11:02:20;22.60;;;16.25;;
10667;SDS011;5382;42.136;24.796;2022-12-29T11:05:03;19.52;;;15.80;;
10667;SDS011;5382;42.136;24.796;2022-12-29T11:07:36;21.17;;;16.58;;
10667;SDS011;5382;42.136;24.796;2022-12-29T11:12:59;20.25;;;16.08;;
10667;SDS011;5382;42.136;24.796;2022-12-29T11:15:27;17.65;;;15.57;;
10667;SDS011;5382;42.136;24.796;2022-12-29T11:18:07;19.80;;;15.25;;
10667;SDS011;5382;42.136;24.796;2022-12-29T11:20:44;19.08;;;15.40;;
10667;SDS011;5382;42.136;24.796;2022-12-29T11:23:21;19.33;;;15.48;;
10667;SDS011;5382;42.136;24.796;2022-12-29T11:25:59;16.70;;;13.98;;
10667;SDS011;5382;42.136;24.796;2022-12-29T11:28:40;16.67;;;13.98;;
10667;SDS011;5382;42.136;24.796;2022-12-29T11:31:09;19.60;;;15.60;;
10667;SDS011;5382;42.136;24.796;2022-12-29T11:33:38;18.27;;;14.77;;
10667;SDS011;5382;42.136;24.796;2022-12-29T11:36:06;15.90;;;14.20;;
10667;SDS011;5382;42.136;24.796;2022-12-29T11:38:39;18.73;;;14.73;;
10667;SDS011;5382;42.136;24.796;2022-12-29T11:41:11;22.67;;;15.50;;
10667;SDS011;5382;42.136;24.796;2022-12-29T11:43:40;18.80;;;16.42;;
10667;SDS011;5382;42.136;24.796;2022-12-29T11:46:12;19.20;;;16.13;;
10667;SDS011;5382;42.136;24.796;2022-12-29T11:48:43;19.30;;;16.13;;
10667;SDS011;5382;42.136;24.796;2022-12-29T11:51:12;18.55;;;15.00;;
10667;SDS011;5382;42.136;24.796;2022-12-29T11:53:49;19.60;;;15.68;;
10667;SDS011;5382;42.136;24.796;2022-12-29T11:56:19;19.42;;;16.30;;
10667;SDS011;5382;42.136;24.796;2022-12-29T11:58:48;40.42;;;16.45;;
10667;SDS011;5382;42.136;24.796;2022-12-29T12:01:19;22.73;;;15.70;;
10667;SDS011;5382;42.136;24.796;2022-12-29T12:03:52;30.67;;;16.85;;
10667;SDS011;5382;42.136;24.796;2022-12-29T12:06:26;19.23;;;17.05;;
10667;SDS011;5382;42.136;24.796;2022-12-29T12:08:56;20.70;;;16.17;;
10667;SDS011;5382;42.136;24.796;2022-12-29T12:11:28;26.17;;;15.45;;
10667;SDS011;5382;42.136;24.796;2022-12-29T12:14:02;17.60;;;15.73;;
10667;SDS011;5382;42.136;24.796;2022-12-29T12:16:35;30.15;;;16.27;;
10667;SDS011;5382;42.136;24.796;2022-12-29T12:19:09;24.17;;;16.15;;
10667;SDS011;5382;42.136;24.796;2022-12-29T12:21:47;20.40;;;15.10;;
10667;SDS011;5382;42.136;24.796;2022-12-29T12:24:32;20.13;;;16.25;;
10667;SDS011;5382;42.136;24.796;2022-12-29T12:27:21;19.30;;;15.63;;
10667;SDS011;5382;42.136;24.796;2022-12-29T12:29:56;20.80;;;15.15;;
10667;SDS011;5382;42.136;24.796;2022-12-29T12:32:29;21.52;;;15.45;;
10667;SDS011;5382;42.136;24.796;2022-12-29T12:35:12;18.15;;;14.30;;
10667;SDS011;5382;42.136;24.796;2022-12-29T12:37:46;18.48;;;14.65;;
10667;SDS011;5382;42.136;24.796;2022-12-29T12:40:32;16.27;;;14.55;;
10667;SDS011;5382;42.136;24.796;2022-12-29T12:43:22;17.77;;;13.85;;
10667;SDS011;5382;42.136;24.796;2022-12-29T12:46:07;15.63;;;14.00;;
10667;SDS011;5382;42.136;24.796;2022-12-29T12:48:48;19.45;;;13.85;;
10667;SDS011;5382;42.136;24.796;2022-12-29T12:51:30;15.43;;;13.93;;
10667;SDS011;5382;42.136;24.796;2022-12-29T12:54:10;26.80;;;14.50;;
10667;SDS011;5382;42.136;24.796;2022-12-29T12:56:56;15.95;;;13.50;;
10667;SDS011;5382;42.136;24.796;2022-12-29T12:59:35;16.77;;;13.05;;
10667;SDS011;5382;42.136;24.796;2022-12-29T13:02:13;18.63;;;14.05;;
10667;SDS011;5382;42.136;24.796;2022-12-29T13:04:52;15.57;;;13.57;;
10667;SDS011;5382;42.136;24.796;2022-12-29T13:07:33;17.83;;;14.77;;
10667;SDS011;5382;42.136;24.796;2022-12-29T13:10:16;22.67;;;13.32;;
10667;SDS011;5382;42.136;24.796;2022-12-29T13:12:54;16.60;;;13.25;;
10667;SDS011;5382;42.136;24.796;2022-12-29T13:15:36;71.03;;;16.90;;
10667;SDS011;5382;42.136;24.796;2022-12-29T13:18:11;15.10;;;13.30;;
10667;SDS011;5382;42.136;24.796;2022-12-29T13:20:46;14.15;;;12.55;;
10667;SDS011;5382;42.136;24.796;2022-12-29T13:23:19;16.50;;;13.25;;
10667;SDS011;5382;42.136;24.796;2022-12-29T13:25:54;16.73;;;13.90;;
10667;SDS011;5382;42.136;24.796;2022-12-29T13:28:31;17.10;;;12.68;;
10667;SDS011;5382;42.136;24.796;2022-12-29T13:31:04;16.20;;;13.93;;
10667;SDS011;5382;42.136;24.796;2022-12-29T13:33:44;18.90;;;14.60;;
10667;SDS011;5382;42.136;24.796;2022-12-29T13:36:21;19.42;;;16.10;;
10667;SDS011;5382;42.136;24.796;2022-12-29T13:38:57;19.85;;;14.27;;
10667;SDS011;5382;42.136;24.796;2022-12-29T13:41:32;15.95;;;14.35;;
10667;SDS011;5382;42.136;24.796;2022-12-29T13:44:03;20.35;;;14.88;;
10667;SDS011;5382;42.136;24.796;2022-12-29T13:46:33;16.27;;;14.10;;
10667;SDS011;5382;42.136;24.796;2022-12-29T13:49:04;13.60;;;12.15;;
10667;SDS011;5382;42.136;24.796;2022-12-29T13:51:36;20.10;;;13.15;;
10667;SDS011;5382;42.136;24.796;2022-12-29T13:54:15;17.13;;;14.15;;
10667;SDS011;5382;42.136;24.796;2022-12-29T13:56:51;30.13;;;13.50;;
10667;SDS011;5382;42.136;24.796;2022-12-29T13:59:27;18.38;;;14.63;;
10667;SDS011;5382;42.136;24.796;2022-12-29T14:02:03;21.52;;;15.68;;
10667;SDS011;5382;42.136;24.796;2022-12-29T14:04:54;20.65;;;17.33;;
10667;SDS011;5382;42.136;24.796;2022-12-29T14:07:22;19.35;;;17.38;;
10667;SDS011;5382;42.136;24.796;2022-12-29T14:09:51;33.92;;;18.30;;
10667;SDS011;5382;42.136;24.796;2022-12-29T14:12:30;25.23;;;19.30;;
10667;SDS011;5382;42.136;24.796;2022-12-29T14:15:03;30.70;;;19.92;;
10667;SDS011;5382;42.136;24.796;2022-12-29T14:17:33;29.25;;;20.17;;
10667;SDS011;5382;42.136;24.796;2022-12-29T14:20:01;27.38;;;20.10;;
10667;SDS011;5382;42.136;24.796;2022-12-29T14:22:30;44.53;;;21.75;;
10667;SDS011;5382;42.136;24.796;2022-12-29T14:24:58;23.00;;;19.38;;
10667;SDS011;5382;42.136;24.796;2022-12-29T14:27:44;24.38;;;18.83;;
10667;SDS011;5382;42.136;24.796;2022-12-29T14:33:13;37.97;;;19.80;;
10667;SDS011;5382;42.136;24.796;2022-12-29T14:35:41;22.25;;;19.15;;
10667;SDS011;5382;42.136;24.796;2022-12-29T14:38:17;22.55;;;18.90;;
10667;SDS011;5382;42.136;24.796;2022-12-29T14:40:48;25.30;;;20.35;;
10667;SDS011;5382;42.136;24.796;2022-12-29T14:43:19;22.70;;;19.00;;
10667;SDS011;5382;42.136;24.796;2022-12-29T14:45:59;29.00;;;21.40;;
10667;SDS011;5382;42.136;24.796;2022-12-29T14:48:33;22.63;;;18.55;;
10667;SDS011;5382;42.136;24.796;2022-12-29T14:51:16;22.33;;;18.48;;
10667;SDS011;5382;42.136;24.796;2022-12-29T14:53:46;22.73;;;18.10;;
10667;SDS011;5382;42.136;24.796;2022-12-29T14:56:16;20.88;;;15.55;;
10667;SDS011;5382;42.136;24.796;2022-12-29T14:58:49;19.67;;;17.15;;
10667;SDS011;5382;42.136;24.796;2022-12-29T15:01:24;25.60;;;16.45;;
10667;SDS011;5382;42.136;24.796;2022-12-29T15:03:55;20.40;;;14.00;;
10667;SDS011;5382;42.136;24.796;2022-12-29T15:06:27;23.92;;;14.73;;
10667;SDS011;5382;42.136;24.796;2022-12-29T15:08:59;29.23;;;17.27;;